Kinkaid, Illinois
Current Conditions -  °F | °C
As of 5:52 PM on Friday 31 Oct 2014 (Local Time) from KMDH Reporting Station
Few Clouds Few Clouds  
Wind Chill: 36°   Ceiling: Unl
Heat Index: 43°   Visibility: 10mi
Dew Point: 21°   Wind: 13mph
Humidity: 42%   Direction: 340°NNW
Pressure: 30.27"   Gusts: 22mph
Location:  37.8835°N, 89.4465°W
Report Text: KMDH 312252Z AUTO 34011G19KT 10SM FEW065 06/M06 A3027 RMK AO2 PK WND 33027/2159 SLP252 T00611061
Loading
Personal Weather Stations






























Interactive Weather Map
Tropical Storm Tracking
New forecast layout! Learn more

10-Day Weather Forecast

Advertisements
Track Severe Weather on mobile